Time;durP1;ratioP1;P1;durP2;ratioP2;P2;SDS_P1;SDS_P2;PMS_P1;PMS_P2;Temp;Humidity;BMP_temperature;BMP_pressure;BME280_temperature;BME280_humidity;BME280_pressure;Samples;Min_cycle;Max_cycle;Signal;HPM_P1;HPM_P2
2024/02/28 00:00:52;;;;;;;23.50;12.10;;;;;;;4.19;97.70;101490.16;105418;1266;138412;-71
2024/02/28 00:03:39;;;;;;;17.80;11.00;;;;;;;4.14;97.45;101483.95;105383;1263;77258;-72
2024/02/28 00:06:06;;;;;;;21.40;12.30;;;;;;;4.08;97.29;101486.20;105401;1264;139061;-73
2024/02/28 00:08:33;;;;;;;20.30;12.40;;;;;;;4.05;97.27;101484.96;105412;1267;72775;-73
2024/02/28 00:11:00;;;;;;;18.70;12.00;;;;;;;4.01;97.22;101482.30;105471;1264;61277;-73
2024/02/28 00:13:27;;;;;;;17.40;11.00;;;;;;;4.03;97.41;101483.62;105270;1263;138476;-73
2024/02/28 00:15:53;;;;;;;18.20;11.80;;;;;;;4.05;97.58;101479.77;105498;1263;73590;-73
2024/02/28 00:18:20;;;;;;;21.40;11.90;;;;;;;4.08;97.61;101475.98;105336;1267;138655;-72
2024/02/28 00:20:47;;;;;;;19.20;11.20;;;;;;;4.13;97.61;101477.44;105386;1263;72686;-70
2024/02/28 00:23:14;;;;;;;19.20;11.50;;;;;;;4.15;97.72;101484.02;105470;1262;61389;-71
2024/02/28 00:25:40;;;;;;;19.50;12.20;;;;;;;4.17;97.67;101488.50;105331;1268;138185;-70
2024/02/28 00:28:07;;;;;;;22.20;13.50;;;;;;;4.18;97.43;101493.59;105469;1263;73776;-71
2024/02/28 00:30:34;;;;;;;19.40;11.80;;;;;;;4.16;97.24;101495.02;105325;1263;138742;-70
2024/02/28 00:33:01;;;;;;;18.80;11.80;;;;;;;4.18;97.30;101497.23;105205;1263;71436;-68
2024/02/28 00:35:32;;;;;;;20.00;12.30;;;;;;;4.20;97.24;101498.22;105145;1269;138514;-68
2024/02/28 00:37:59;;;;;;;18.30;11.50;;;;;;;4.23;97.24;101500.88;105432;1264;61296;-69
2024/02/28 00:40:26;;;;;;;18.60;11.30;;;;;;;4.25;97.22;101500.65;105390;1268;74268;-70
2024/02/28 00:42:53;;;;;;;18.10;11.70;;;;;;;4.28;97.12;101502.71;105500;1268;139140;-72
2024/02/28 00:45:20;;;;;;;16.20;10.70;;;;;;;4.29;97.03;101499.83;105500;1268;71360;-72
2024/02/28 00:47:47;;;;;;;15.90;11.30;;;;;;;4.30;96.90;101495.56;105069;1273;139107;-72
2024/02/28 00:50:14;;;;;;;19.10;11.40;;;;;;;4.29;96.65;101495.83;105466;1268;61136;-74
2024/02/28 00:52:41;;;;;;;17.20;11.70;;;;;;;4.28;96.77;101493.04;105291;1263;74693;-72
2024/02/28 00:55:08;;;;;;;17.70;11.00;;;;;;;4.32;96.88;101491.11;105470;1267;138390;-72
2024/02/28 00:57:35;;;;;;;18.90;12.00;;;;;;;4.36;96.89;101498.14;105486;1266;71702;-73
2024/02/28 01:00:02;;;;;;;17.50;11.00;;;;;;;4.38;96.75;101495.05;105381;1263;139587;-71
2024/02/28 01:02:29;;;;;;;17.30;10.40;;;;;;;4.43;96.86;101494.93;105409;1267;60686;-71
2024/02/28 01:04:55;;;;;;;14.20;10.50;;;;;;;4.46;96.70;101493.09;105474;1267;74688;-69
2024/02/28 01:07:22;;;;;;;14.80;10.30;;;;;;;4.51;96.69;101495.42;105384;1263;138802;-69
2024/02/28 01:09:49;;;;;;;12.30;9.90;;;;;;;4.48;96.41;101488.81;105198;1266;72745;-71
2024/02/28 01:12:16;;;;;;;14.30;10.10;;;;;;;4.49;96.14;101486.95;105161;1268;138677;-71
2024/02/28 01:14:42;;;;;;;14.20;9.70;;;;;;;4.48;96.10;101483.45;105466;1267;61259;-71
2024/02/28 01:17:09;;;;;;;14.30;9.80;;;;;;;4.48;96.05;101485.72;105402;1267;74454;-71
2024/02/28 01:19:36;;;;;;;17.10;10.30;;;;;;;4.50;96.08;101485.98;105329;1263;138562;-71
2024/02/28 01:22:03;;;;;;;12.00;9.20;;;;;;;4.50;95.94;101484.77;105398;1263;71438;-73
2024/02/28 01:24:29;;;;;;;13.40;8.90;;;;;;;4.49;95.82;101476.39;105333;1267;139203;-73
2024/02/28 01:26:56;;;;;;;12.80;8.80;;;;;;;4.50;95.89;101472.98;105466;1268;61273;-73
2024/02/28 01:29:23;;;;;;;12.60;9.40;;;;;;;4.51;95.83;101474.58;105505;1267;139151;-73
2024/02/28 01:31:50;;;;;;;12.80;8.90;;;;;;;4.52;95.69;101477.25;105358;1267;66282;-73
2024/02/28 01:34:16;;;;;;;12.30;8.80;;;;;;;4.51;95.60;101477.55;105428;1263;71445;-73
2024/02/28 01:36:43;;;;;;;11.10;7.70;;;;;;;4.47;95.38;101473.33;105342;1267;138309;-72
2024/02/28 01:39:10;;;;;;;12.10;8.70;;;;;;;4.42;95.17;101473.52;105482;1269;61266;-72
2024/02/28 01:41:37;;;;;;;15.20;8.80;;;;;;;4.39;95.14;101472.98;105388;1268;138731;-72
2024/02/28 01:44:04;;;;;;;16.60;9.60;;;;;;;4.38;95.16;101472.58;105306;1263;66282;-73
2024/02/28 01:46:31;;;;;;;15.10;9.40;;;;;;;4.35;95.14;101475.73;105431;1268;73276;-72
2024/02/28 01:48:58;;;;;;;14.10;8.90;;;;;;;4.34;95.11;101474.07;105213;1263;138519;-72
2024/02/28 01:51:27;;;;;;;10.90;7.70;;;;;;;4.36;95.24;101474.19;105429;1267;61307;-72
2024/02/28 01:53:54;;;;;;;11.70;8.00;;;;;;;4.35;95.11;101468.91;106023;1265;139144;-71
2024/02/28 01:56:21;;;;;;;13.10;7.90;;;;;;;4.36;95.12;101471.08;105262;1264;65029;-72
2024/02/28 01:58:48;;;;;;;9.90;7.40;;;;;;;4.36;95.00;101471.91;105368;1269;71372;-71
2024/02/28 02:01:15;;;;;;;12.70;7.60;;;;;;;4.35;94.92;101470.69;105319;1263;138156;-70
2024/02/28 02:03:45;;;;;;;11.00;7.20;;;;;;;4.32;94.74;101467.17;105367;1267;61363;-70
2024/02/28 02:06:12;;;;;;;10.80;6.90;;;;;;;4.30;94.83;101461.52;105361;1273;138113;-71
2024/02/28 02:08:39;;;;;;;12.40;6.50;;;;;;;4.31;94.92;101461.02;105365;1268;66242;-72
2024/02/28 02:11:06;;;;;;;10.40;7.50;;;;;;;4.32;94.92;101461.27;105460;1269;71641;-71
2024/02/28 02:13:33;;;;;;;11.50;6.80;;;;;;;4.29;94.84;101460.77;105316;1269;138379;-71
2024/02/28 02:15:59;;;;;;;10.60;6.80;;;;;;;4.29;94.78;101465.10;105377;1266;59385;-71
2024/02/28 02:18:26;;;;;;;12.50;7.20;;;;;;;4.30;94.90;101462.73;105371;1269;138691;-72
2024/02/28 02:20:59;;;;;;;11.70;7.50;;;;;;;4.32;94.88;101459.83;105521;1263;63895;-70
2024/02/28 02:23:25;;;;;;;10.00;7.60;;;;;;;4.28;94.66;101461.40;105121;1267;138651;-70
2024/02/28 02:25:53;;;;;;;9.00;7.20;;;;;;;4.27;94.73;101462.40;105411;1266;61344;-71
2024/02/28 02:28:19;;;;;;;10.10;6.80;;;;;;;4.27;94.80;101464.98;105485;1267;60430;-71
2024/02/28 02:30:47;;;;;;;12.60;7.20;;;;;;;4.26;94.65;101468.55;105208;1267;139088;-70
2024/02/28 02:33:14;;;;;;;10.10;7.30;;;;;;;4.22;94.46;101464.30;105273;1264;66547;-71
2024/02/28 02:35:41;;;;;;;10.40;7.60;;;;;;;4.21;94.62;101468.79;105336;1266;138535;-73
2024/02/28 02:38:07;;;;;;;10.30;7.20;;;;;;;4.21;94.61;101466.84;105454;1264;61392;-74
2024/02/28 02:40:34;;;;;;;9.70;7.10;;;;;;;4.19;94.59;101472.07;105287;1266;61426;-74
2024/02/28 02:43:01;;;;;;;10.20;7.00;;;;;;;4.16;94.52;101475.02;105439;1268;138005;-73
2024/02/28 02:45:28;;;;;;;9.20;7.40;;;;;;;4.14;94.49;101473.01;105604;1268;65114;-72
2024/02/28 02:47:55;;;;;;;8.30;6.80;;;;;;;4.17;94.74;101473.89;105251;1269;139067;-73
2024/02/28 02:50:21;;;;;;;10.30;7.00;;;;;;;4.15;94.54;101469.21;105574;1264;61138;-73
2024/02/28 02:52:48;;;;;;;11.10;6.60;;;;;;;4.13;94.61;101462.90;105208;1266;61299;-73
2024/02/28 02:55:15;;;;;;;10.40;7.10;;;;;;;4.15;94.69;101463.02;105209;1268;138356;-71
2024/02/28 02:57:42;;;;;;;10.50;7.20;;;;;;;4.15;94.64;101464.88;105481;1267;66609;-72
2024/02/28 03:00:10;;;;;;;10.60;7.80;;;;;;;4.15;94.77;101460.58;105320;1276;138250;-75
2024/02/28 03:02:39;;;;;;;10.10;7.30;;;;;;;4.21;95.04;101460.27;105276;1269;61437;-73
2024/02/28 03:05:07;;;;;;;11.20;8.00;;;;;;;4.24;94.95;101462.85;105252;1268;60441;-73
2024/02/28 03:07:33;;;;;;;11.30;7.00;;;;;;;4.24;94.81;101465.09;105243;1262;138417;-73
2024/02/28 03:10:00;;;;;;;10.70;7.80;;;;;;;4.24;94.75;101457.83;105252;1267;67339;-72
2024/02/28 03:12:27;;;;;;;11.70;8.40;;;;;;;4.24;94.73;101455.77;105199;1269;138691;-74
2024/02/28 03:14:54;;;;;;;11.00;7.90;;;;;;;4.23;94.60;101454.80;105499;1267;61337;-72
2024/02/28 03:17:20;;;;;;;12.20;8.80;;;;;;;4.24;94.65;101455.20;105465;1267;61237;-72
2024/02/28 03:19:47;;;;;;;12.10;9.00;;;;;;;4.26;94.73;101452.35;105319;1264;138084;-74
2024/02/28 03:22:14;;;;;;;11.20;8.50;;;;;;;4.28;94.64;101456.33;105429;1266;66460;-75
2024/02/28 03:24:41;;;;;;;10.60;8.20;;;;;;;4.28;94.48;101456.02;105340;1263;138477;-73
2024/02/28 03:27:08;;;;;;;12.00;8.20;;;;;;;4.28;94.48;101457.19;105246;1264;61319;-73
2024/02/28 03:29:35;;;;;;;11.90;8.50;;;;;;;4.27;94.50;101462.05;105398;1269;138729;-72
2024/02/28 03:32:02;;;;;;;12.90;8.90;;;;;;;4.32;94.64;101464.02;105555;1266;72979;-72
2024/02/28 03:34:29;;;;;;;11.40;8.40;;;;;;;4.34;94.61;101460.16;105212;1279;66311;-72
2024/02/28 03:36:55;;;;;;;12.30;8.30;;;;;;;4.36;94.69;101465.16;105146;1262;139236;-72
2024/02/28 03:39:22;;;;;;;15.00;8.90;;;;;;;4.36;94.54;101465.84;105426;1264;61285;-71
2024/02/28 03:41:49;;;;;;;15.80;8.20;;;;;;;4.35;94.42;101466.11;105158;1269;139104;-71
2024/02/28 03:44:16;;;;;;;13.40;9.30;;;;;;;4.32;94.20;101469.06;105429;1266;74761;-71
2024/02/28 03:46:42;;;;;;;12.00;8.80;;;;;;;4.31;94.39;101465.91;105398;1267;65095;-71
2024/02/28 03:49:09;;;;;;;9.80;8.20;;;;;;;4.32;94.36;101463.50;105316;1267;138962;-72
2024/02/28 03:51:41;;;;;;;10.70;8.70;;;;;;;4.33;94.45;101464.27;105433;1264;61299;-72
2024/02/28 03:54:08;;;;;;;12.30;9.40;;;;;;;4.35;94.44;101468.58;105383;1267;138721;-74
2024/02/28 03:56:35;;;;;;;12.70;9.30;;;;;;;4.37;94.48;101463.50;105487;1267;73271;-75
2024/02/28 03:59:03;;;;;;;13.30;9.70;;;;;;;4.37;94.35;101462.62;105467;1264;66216;-76
2024/02/28 04:01:30;;;;;;;13.80;9.30;;;;;;;4.34;94.21;101460.37;105302;1267;138402;-72
2024/02/28 04:03:57;;;;;;;13.40;9.70;;;;;;;4.32;94.21;101455.89;105212;1269;61295;-72
2024/02/28 04:06:24;;;;;;;15.40;9.60;;;;;;;4.32;94.20;101451.02;105146;1263;138883;-77
2024/02/28 04:08:51;;;;;;;13.90;9.50;;;;;;;4.33;94.37;101450.05;105308;1269;74717;-77
2024/02/28 04:11:18;;;;;;;13.40;8.90;;;;;;;4.33;94.23;101450.70;105379;1268;66322;-76
2024/02/28 04:13:45;;;;;;;14.20;9.00;;;;;;;4.30;94.18;101449.70;105292;1267;138544;-76
2024/02/28 04:16:12;;;;;;;14.10;9.20;;;;;;;4.26;94.02;101444.07;105368;1264;61349;-75
2024/02/28 04:18:39;;;;;;;12.40;9.10;;;;;;;4.22;94.02;101441.55;105421;1264;138281;-74
2024/02/28 04:21:06;;;;;;;12.80;9.30;;;;;;;4.22;94.17;101444.33;105347;1270;74774;-74
2024/02/28 04:23:33;;;;;;;13.20;9.30;;;;;;;4.21;94.24;101443.94;105322;1266;139256;-73
2024/02/28 04:25:59;;;;;;;11.20;9.10;;;;;;;4.22;94.35;101448.47;105440;1266;72674;-74
2024/02/28 04:28:26;;;;;;;12.60;9.50;;;;;;;4.22;94.39;101445.93;105282;1267;61343;-74
2024/02/28 04:30:53;;;;;;;12.20;9.80;;;;;;;4.22;94.37;101448.71;105465;1267;138171;-73
2024/02/28 04:33:20;;;;;;;13.10;10.20;;;;;;;4.23;94.40;101448.39;105343;1268;74554;-75
2024/02/28 04:35:47;;;;;;;16.50;11.20;;;;;;;4.28;94.64;101447.48;105406;1265;138768;-75
2024/02/28 04:38:14;;;;;;;13.30;10.40;;;;;;;4.33;94.69;101448.63;105372;1269;72859;-76
2024/02/28 04:40:40;;;;;;;12.60;9.50;;;;;;;4.35;94.55;101444.38;105277;1265;59286;-76
2024/02/28 04:43:08;;;;;;;13.30;9.80;;;;;;;4.34;94.39;101448.90;105377;1263;138333;-74
2024/02/28 04:45:35;;;;;;;15.90;10.60;;;;;;;4.35;94.39;101451.00;105509;1265;74451;-73
2024/02/28 04:48:02;;;;;;;16.40;11.00;;;;;;;4.32;94.15;101454.14;105731;1264;139386;-71
2024/02/28 04:50:29;;;;;;;15.50;10.00;;;;;;;4.33;94.35;101456.98;105773;1267;71502;-71
2024/02/28 04:52:56;;;;;;;18.90;11.40;;;;;;;4.36;94.33;101454.39;105350;1269;60024;-71
2024/02/28 04:55:22;;;;;;;14.40;11.10;;;;;;;4.36;94.27;101455.95;105198;1265;138928;-72
2024/02/28 04:57:49;;;;;;;18.40;10.50;;;;;;;4.36;94.31;101457.17;105502;1264;74727;-73
2024/02/28 05:00:16;;;;;;;13.40;9.10;;;;;;;4.37;94.29;101458.29;105210;1264;138756;-73
2024/02/28 05:02:43;;;;;;;13.50;9.70;;;;;;;4.34;94.11;101462.45;105328;1269;70963;-73
2024/02/28 05:05:10;;;;;;;12.00;9.00;;;;;;;4.30;93.97;101460.64;105343;1263;59798;-74
2024/02/28 05:07:37;;;;;;;13.20;9.40;;;;;;;4.29;94.02;101460.04;105333;1264;138422;-70
2024/02/28 05:10:04;;;;;;;14.40;9.40;;;;;;;4.27;94.03;101458.37;106005;1263;74716;-70
2024/02/28 05:12:31;;;;;;;10.40;8.40;;;;;;;4.31;94.16;101463.98;108242;1263;139175;-71
2024/02/28 05:14:57;;;;;;;14.70;8.70;;;;;;;4.34;94.23;101463.13;108466;1262;73129;-71
2024/02/28 05:17:24;;;;;;;14.20;8.10;;;;;;;4.34;94.11;101462.60;108278;1267;138621;-72
2024/02/28 05:19:51;;;;;;;11.90;8.30;;;;;;;4.34;94.01;101462.44;108483;1264;59277;-72
2024/02/28 05:22:18;;;;;;;12.20;8.60;;;;;;;4.34;93.99;101465.54;108440;1264;73935;-72
2024/02/28 05:24:47;;;;;;;11.80;8.10;;;;;;;4.39;94.10;101465.86;108342;1262;138872;-71
2024/02/28 05:27:14;;;;;;;12.50;8.60;;;;;;;4.43;94.18;101467.50;105304;1263;71711;-71
2024/02/28 05:29:42;;;;;;;11.40;8.50;;;;;;;4.48;94.18;101469.55;105397;1267;138384;-69
2024/02/28 05:32:09;;;;;;;11.60;8.20;;;;;;;4.52;94.09;101469.61;105493;1264;61212;-69
2024/02/28 05:34:36;;;;;;;11.60;8.80;;;;;;;4.54;94.04;101471.61;105466;1267;73819;-68
2024/02/28 05:37:03;;;;;;;12.00;8.30;;;;;;;4.55;94.00;101471.70;104186;1264;138591;-66
2024/02/28 05:39:30;;;;;;;10.60;8.10;;;;;;;4.53;93.78;101470.69;104247;1267;73134;-66
2024/02/28 05:41:57;;;;;;;11.40;8.90;;;;;;;4.52;93.86;101475.33;104025;1267;138633;-66
2024/02/28 05:44:27;;;;;;;15.00;8.60;;;;;;;4.54;93.83;101475.80;104140;1264;61353;-66
2024/02/28 05:46:53;;;;;;;15.60;10.20;;;;;;;4.53;93.74;101476.47;104253;1264;74853;-66
2024/02/28 05:49:20;;;;;;;17.20;10.90;;;;;;;4.55;93.89;101477.79;104087;1270;138778;-66
2024/02/28 05:51:47;;;;;;;17.40;11.60;;;;;;;4.58;94.02;101482.98;104336;1266;71999;-67
2024/02/28 05:54:14;;;;;;;16.00;10.70;;;;;;;4.57;93.77;101485.73;104194;1262;138722;-67
2024/02/28 05:56:40;;;;;;;16.80;11.60;;;;;;;4.56;93.73;101484.09;104230;1264;61333;-65
2024/02/28 05:59:07;;;;;;;18.00;11.00;;;;;;;4.56;93.84;101484.47;104322;1263;75644;-65
2024/02/28 06:01:34;;;;;;;15.60;10.60;;;;;;;4.55;93.63;101484.36;104094;1264;138699;-68
2024/02/28 06:04:01;;;;;;;15.70;10.00;;;;;;;4.51;93.54;101489.38;104181;1267;73996;-67
2024/02/28 06:06:28;;;;;;;18.40;11.30;;;;;;;4.51;93.65;101493.52;104186;1268;138650;-68
2024/02/28 06:08:56;;;;;;;17.00;11.50;;;;;;;4.55;93.90;101493.21;104270;1267;61520;-67
2024/02/28 06:11:23;;;;;;;20.10;12.70;;;;;;;4.56;93.85;101495.23;104258;1264;75686;-68
2024/02/28 06:13:51;;;;;;;19.10;12.30;;;;;;;4.58;93.85;101497.11;104474;1266;67237;-69
2024/02/28 06:16:18;;;;;;;17.90;11.70;;;;;;;4.60;93.80;101497.77;104194;1272;73726;-73
2024/02/28 06:18:45;;;;;;;20.40;12.30;;;;;;;4.64;93.91;101496.10;108310;1263;138577;-68
2024/02/28 06:21:13;;;;;;;18.80;11.90;;;;;;;4.68;93.82;101501.67;105435;1263;61691;-68
2024/02/28 06:23:40;;;;;;;20.30;12.60;;;;;;;4.70;93.83;101498.16;104002;1263;139709;-68
2024/02/28 06:26:07;;;;;;;20.70;12.80;;;;;;;4.73;93.81;101501.67;104240;1263;65550;-70
2024/02/28 06:28:34;;;;;;;21.70;12.20;;;;;;;4.76;93.69;101507.06;105209;1264;72484;-67
2024/02/28 06:31:01;;;;;;;24.10;13.00;;;;;;;4.79;93.67;101506.57;103957;1264;140280;-67
2024/02/28 06:33:28;;;;;;;19.90;12.90;;;;;;;4.82;93.68;101502.41;104146;1267;62235;-67
2024/02/28 06:35:54;;;;;;;19.40;13.00;;;;;;;4.83;93.50;101500.88;104197;1267;138922;-67
2024/02/28 06:38:21;;;;;;;20.30;13.20;;;;;;;4.86;93.47;101499.10;104343;1267;66600;-66
2024/02/28 06:40:48;;;;;;;19.10;12.80;;;;;;;4.88;93.51;101501.51;104262;1267;73438;-67
2024/02/28 06:43:15;;;;;;;19.10;11.70;;;;;;;4.94;93.63;101504.09;104146;1267;139550;-67
2024/02/28 06:45:42;;;;;;;21.60;13.10;;;;;;;4.98;93.49;101510.48;104278;1263;60568;-67
2024/02/28 06:48:09;;;;;;;21.70;13.50;;;;;;;5.01;93.33;101511.14;104289;1267;138623;-68
2024/02/28 06:50:36;;;;;;;23.50;14.00;;;;;;;5.01;93.33;101502.82;104564;1266;65979;-67
2024/02/28 06:53:03;;;;;;;22.70;13.10;;;;;;;5.04;93.29;101502.45;104443;1267;73653;-67
2024/02/28 06:55:30;;;;;;;20.60;13.60;;;;;;;5.05;93.15;101507.58;108462;1263;139038;-67
2024/02/28 06:57:57;;;;;;;22.80;12.00;;;;;;;5.07;93.21;101513.94;108643;1263;60462;-68
2024/02/28 07:00:24;;;;;;;19.20;12.70;;;;;;;5.08;93.03;101514.19;108514;1262;138812;-67
2024/02/28 07:02:51;;;;;;;21.50;13.20;;;;;;;5.13;93.30;101509.90;108642;1262;65178;-68
2024/02/28 07:05:17;;;;;;;21.30;13.50;;;;;;;5.20;93.20;101513.84;108652;1262;71704;-68
2024/02/28 07:07:44;;;;;;;19.10;12.70;;;;;;;5.22;93.06;101512.76;108558;1262;139767;-68
2024/02/28 07:10:11;;;;;;;21.30;13.60;;;;;;;5.25;93.03;101512.94;108661;1263;60073;-68
2024/02/28 07:12:38;;;;;;;23.80;13.90;;;;;;;5.26;92.71;101514.55;108533;1263;138659;-68
2024/02/28 07:15:05;;;;;;;24.70;14.00;;;;;;;5.27;92.74;101517.40;108665;1262;66254;-68
2024/02/28 07:17:31;;;;;;;27.20;14.20;;;;;;;5.32;92.80;101516.42;108400;1264;139736;-68
2024/02/28 07:19:58;;;;;;;23.00;13.50;;;;;;;5.37;92.73;101518.30;108661;1262;59398;-68
2024/02/28 07:22:25;;;;;;;22.60;12.80;;;;;;;5.42;92.78;101519.46;108651;1262;61085;-67
2024/02/28 07:24:52;;;;;;;27.60;13.60;;;;;;;5.48;92.79;101519.63;108536;1263;138453;-68
2024/02/28 07:27:18;;;;;;;23.90;13.40;;;;;;;5.53;92.71;101525.14;108701;1262;64544;-67
2024/02/28 07:29:45;;;;;;;21.20;13.20;;;;;;;5.56;92.58;101526.04;108411;1262;140118;-68
2024/02/28 07:32:12;;;;;;;22.00;12.00;;;;;;;5.58;92.29;101528.38;108699;1262;58933;-68
2024/02/28 07:34:39;;;;;;;20.40;12.20;;;;;;;5.61;92.39;101531.89;108524;1263;59655;-68
2024/02/28 07:37:06;;;;;;;20.50;12.20;;;;;;;5.64;92.20;101533.13;108554;1262;138966;-68
2024/02/28 07:39:32;;;;;;;20.70;13.10;;;;;;;5.63;91.98;101531.01;108652;1263;66387;-68
2024/02/28 07:41:59;;;;;;;19.60;12.20;;;;;;;5.65;92.00;101530.02;106218;1263;138663;-67
2024/02/28 07:44:26;;;;;;;19.80;11.60;;;;;;;5.69;91.94;101533.01;104544;1263;61254;-67
2024/02/28 07:46:52;;;;;;;19.20;11.70;;;;;;;5.69;91.88;101534.41;104451;1267;61177;-68
2024/02/28 07:49:19;;;;;;;17.90;10.80;;;;;;;5.64;91.79;101531.37;104467;1263;138596;-68
2024/02/28 07:51:46;;;;;;;15.80;11.20;;;;;;;5.62;91.82;101529.69;104338;1268;65767;-68
2024/02/28 07:54:13;;;;;;;21.20;12.60;;;;;;;5.64;91.95;101532.24;104406;1267;138864;-68
2024/02/28 07:56:39;;;;;;;20.00;12.90;;;;;;;5.65;91.84;101535.80;104438;1264;61640;-70
2024/02/28 07:59:06;;;;;;;22.30;13.90;;;;;;;5.64;91.78;101540.10;104376;1265;61260;-68
2024/02/28 08:01:33;;;;;;;23.20;12.70;;;;;;;5.61;91.70;101541.65;104302;1263;138570;-68
2024/02/28 08:04:01;;;;;;;24.40;13.60;;;;;;;5.57;91.64;101544.88;104451;1267;65502;-68
2024/02/28 08:06:28;;;;;;;20.60;12.90;;;;;;;5.54;91.60;101550.63;105892;1262;138526;-67
2024/02/28 08:08:55;;;;;;;19.80;13.00;;;;;;;5.55;91.78;101549.66;104388;1263;61356;-67
2024/02/28 08:11:21;;;;;;;22.40;14.40;;;;;;;5.57;91.84;101554.30;104525;1264;61177;-67
2024/02/28 08:13:48;;;;;;;20.60;13.30;;;;;;;5.62;92.02;101559.26;104476;1263;73862;-67
2024/02/28 08:16:15;;;;;;;20.90;13.20;;;;;;;5.64;92.01;101557.52;104558;1267;66601;-67
2024/02/28 08:18:42;;;;;;;21.70;14.00;;;;;;;5.68;91.87;101555.08;104442;1266;139020;-67
2024/02/28 08:21:09;;;;;;;18.50;13.20;;;;;;;5.67;91.57;101558.84;104423;1268;61183;-68
2024/02/28 08:23:35;;;;;;;20.90;13.90;;;;;;;5.61;91.41;101552.77;104435;1263;139269;-67
2024/02/28 08:26:03;;;;;;;19.50;13.10;;;;;;;5.57;91.41;101553.24;104396;1263;74151;-66
2024/02/28 08:28:30;;;;;;;20.10;13.30;;;;;;;5.60;91.58;101551.14;105931;1267;65897;-67
2024/02/28 08:30:58;;;;;;;19.10;12.10;;;;;;;5.62;91.57;101553.36;104211;1263;138886;-68
2024/02/28 08:33:24;;;;;;;20.50;12.20;;;;;;;5.60;91.34;101555.34;104423;1267;61349;-67
2024/02/28 08:35:51;;;;;;;18.60;12.50;;;;;;;5.57;91.20;101553.09;104203;1268;139097;-68
2024/02/28 08:38:18;;;;;;;18.90;13.10;;;;;;;5.59;91.40;101553.54;105510;1263;74967;-67
2024/02/28 08:40:45;;;;;;;18.20;11.80;;;;;;;5.60;91.20;101549.92;104434;1265;66835;-68
2024/02/28 08:43:12;;;;;;;18.50;12.70;;;;;;;5.60;91.24;101550.45;105804;1263;138615;-67
2024/02/28 08:45:38;;;;;;;18.50;12.30;;;;;;;5.60;91.04;101551.33;104417;1267;61343;-67
2024/02/28 08:48:07;;;;;;;17.00;12.40;;;;;;;5.58;91.24;101552.10;104392;1266;138789;-67
2024/02/28 08:50:33;;;;;;;16.80;11.60;;;;;;;5.62;91.33;101553.36;104524;1264;75266;-67
2024/02/28 08:53:00;;;;;;;20.30;12.20;;;;;;;5.59;91.11;101554.60;104486;1267;65386;-67
2024/02/28 08:55:28;;;;;;;20.70;12.50;;;;;;;5.58;91.12;101553.30;108447;1263;138755;-70
2024/02/28 08:57:55;;;;;;;20.30;11.80;;;;;;;5.57;91.21;101555.01;105778;1262;61289;-70
2024/02/28 09:00:21;;;;;;;19.00;11.90;;;;;;;5.60;91.11;101560.88;104412;1264;138633;-70
2024/02/28 09:02:48;;;;;;;20.30;12.30;;;;;;;5.57;91.08;101557.77;104539;1262;75310;-70
2024/02/28 09:05:15;;;;;;;18.30;13.30;;;;;;;5.57;91.09;101556.02;104391;1268;67133;-70
2024/02/28 09:07:42;;;;;;;20.20;12.70;;;;;;;5.56;91.19;101559.79;105256;1265;139005;-70
2024/02/28 09:10:09;;;;;;;22.50;13.40;;;;;;;5.60;91.37;101562.80;105481;1267;59636;-70
2024/02/28 09:12:36;;;;;;;19.60;12.50;;;;;;;5.65;91.52;101565.55;105743;1262;138972;-71
2024/02/28 09:15:03;;;;;;;18.00;13.00;;;;;;;5.70;91.46;101568.45;105275;1262;73496;-71
2024/02/28 09:17:31;;;;;;;16.50;11.80;;;;;;;5.69;91.23;101567.84;105345;1263;139333;-71
2024/02/28 09:20:00;;;;;;;18.30;11.80;;;;;;;5.70;91.29;101572.47;105432;1262;71200;-67
2024/02/28 09:22:27;;;;;;;15.60;10.90;;;;;;;5.70;91.13;101576.79;105415;1262;61173;-68
2024/02/28 09:24:54;;;;;;;16.30;11.10;;;;;;;5.64;90.80;101575.04;104502;1266;138549;-68
2024/02/28 09:27:21;;;;;;;21.50;12.70;;;;;;;5.60;90.87;101572.23;104401;1262;74053;-68
2024/02/28 09:29:48;;;;;;;20.60;12.90;;;;;;;5.57;90.96;101572.94;104416;1262;139353;-68
2024/02/28 09:32:14;;;;;;;18.50;12.20;;;;;;;5.62;91.24;101574.58;104451;1265;73104;-68
2024/02/28 09:34:41;;;;;;;23.10;13.50;;;;;;;5.63;91.11;101579.91;104497;1267;61459;-67
2024/02/28 09:37:08;;;;;;;20.50;12.40;;;;;;;5.70;91.40;101580.42;104322;1267;138846;-68
2024/02/28 09:39:34;;;;;;;20.10;11.60;;;;;;;5.74;91.32;101581.58;104308;1263;75593;-68
2024/02/28 09:42:01;;;;;;;17.60;11.60;;;;;;;5.76;91.17;101579.59;104299;1267;138777;-68
2024/02/28 09:44:28;;;;;;;19.30;12.20;;;;;;;5.80;91.31;101576.00;104450;1263;73372;-68
2024/02/28 09:46:54;;;;;;;23.50;13.70;;;;;;;5.83;91.14;101579.83;104087;1271;61300;-68
2024/02/28 09:49:21;;;;;;;18.80;12.30;;;;;;;5.85;91.17;101582.73;104250;1263;138573;-68
2024/02/28 09:51:49;;;;;;;19.40;12.00;;;;;;;5.90;91.21;101582.98;104267;1269;75247;-68
2024/02/28 09:54:17;;;;;;;17.00;12.00;;;;;;;5.95;91.09;101584.19;104532;1266;138559;-71
2024/02/28 09:56:44;;;;;;;17.60;11.90;;;;;;;6.00;90.99;101582.37;105418;1264;72699;-70
2024/02/28 09:59:11;;;;;;;16.40;11.60;;;;;;;6.02;90.96;101588.42;105328;1264;61360;-70
2024/02/28 10:01:42;;;;;;;19.50;12.10;;;;;;;6.07;90.91;101589.23;105409;1263;138249;-70
2024/02/28 10:04:10;;;;;;;20.40;11.60;;;;;;;6.09;90.74;101593.83;105310;1265;73481;-70
2024/02/28 10:06:37;;;;;;;16.50;11.90;;;;;;;6.10;90.63;101597.09;105337;1262;139266;-70
2024/02/28 10:09:05;;;;;;;16.20;11.40;;;;;;;6.14;90.71;101588.55;105455;1263;73900;-70
2024/02/28 10:11:33;;;;;;;17.50;11.00;;;;;;;6.18;90.75;101591.73;105433;1263;139184;-70
2024/02/28 10:14:01;;;;;;;17.20;10.70;;;;;;;6.23;90.83;101591.53;105456;1263;60928;-70
2024/02/28 10:16:28;;;;;;;14.00;9.90;;;;;;;6.31;90.88;101594.58;105504;1263;73492;-70
2024/02/28 10:18:55;;;;;;;13.00;9.00;;;;;;;6.35;90.71;101596.73;105187;1263;138580;-70
2024/02/28 10:21:23;;;;;;;12.10;8.00;;;;;;;6.32;90.32;101602.97;105393;1262;72431;-70
2024/02/28 10:23:50;;;;;;;10.10;7.70;;;;;;;6.30;90.29;101601.81;104488;1264;138999;-70
2024/02/28 10:26:17;;;;;;;10.00;7.30;;;;;;;6.30;90.31;101605.30;105375;1268;59475;-70
2024/02/28 10:28:45;;;;;;;12.10;7.70;;;;;;;6.28;90.19;101604.35;104469;1263;76434;-69
2024/02/28 10:31:12;;;;;;;13.60;9.30;;;;;;;6.29;90.38;101602.63;104257;1263;138450;-70
2024/02/28 10:33:41;;;;;;;11.50;9.30;;;;;;;6.34;90.56;101603.80;104533;1264;73321;-70
2024/02/28 10:36:08;;;;;;;13.90;10.50;;;;;;;6.37;90.53;101613.02;104434;1267;138705;-70
2024/02/28 10:38:36;;;;;;;16.60;11.40;;;;;;;6.38;90.50;101617.95;104293;1268;61334;-72
2024/02/28 10:41:03;;;;;;;15.10;11.40;;;;;;;6.43;90.66;101620.31;104241;1267;294596;-70
2024/02/28 10:43:30;;;;;;;18.00;11.20;;;;;;;6.45;90.41;101622.71;104295;1263;138919;-70
2024/02/28 10:46:00;;;;;;;16.40;12.20;;;;;;;6.42;90.29;101616.67;104365;1267;73820;-69
2024/02/28 10:48:27;;;;;;;17.40;12.40;;;;;;;6.43;90.35;101621.23;104491;1262;139137;-69
2024/02/28 10:50:57;;;;;;;17.60;11.30;;;;;;;6.43;90.26;101619.11;104276;1264;61502;-69
2024/02/28 10:53:57;;;;;;;14.80;10.50;;;;;;;6.50;90.64;101618.99;104474;1262;73429;-71
2024/02/28 10:56:23;;;;;;;13.00;9.30;;;;;;;6.54;90.32;101618.66;104482;1263;65303;-69
2024/02/28 10:58:53;;;;;;;14.00;9.50;;;;;;;6.53;90.27;101618.42;104396;1263;70910;-69
2024/02/28 11:01:20;;;;;;;12.60;9.80;;;;;;;6.57;90.41;101618.34;104198;1263;139704;-69
2024/02/28 11:03:49;;;;;;;14.00;9.30;;;;;;;6.58;90.23;101619.27;104312;1268;61459;-69
2024/02/28 11:06:21;;;;;;;16.40;11.10;;;;;;;6.68;90.64;101627.64;104986;1264;138547;-70
2024/02/28 11:08:48;;;;;;;13.00;10.10;;;;;;;6.74;90.33;101625.38;106682;1262;66592;-71